Time;durP1;ratioP1;P1;durP2;ratioP2;P2;SDS_P1;SDS_P2;PMS_P1;PMS_P2;Temp;Humidity;BMP_temperature;BMP_pressure;BME280_temperature;BME280_humidity;BME280_pressure;Samples;Min_cycle;Max_cycle;Signal;HPM_P1;HPM_P2
2022/10/07 00:01:19;;;;;;;;;;;;;;;;;;4995082;28;7153;-86
2022/10/07 00:03:44;;;;;;;;;;;;;;;;;;4995396;28;8659;-85
2022/10/07 00:06:10;;;;;;;;;;;;;;;;;;4995182;28;8382;-85
2022/10/07 00:08:37;;;;;;;;;;;;;;;;;;4978443;28;8389;-84
2022/10/07 00:11:04;;;;;;;;;;;;;;;;;;4994582;28;8322;-85
2022/10/07 00:13:30;;;;;;;;;;;;;;;;;;4994823;28;7253;-84
2022/10/07 00:16:01;;;;;;;;;;;;;;;;;;4994700;28;8563;-85
2022/10/07 00:18:26;;;;;;;;;;;;;;;;;;4994607;28;7020;-87
2022/10/07 00:20:52;;;;;;;;;;;;;;;;;;4996624;28;7329;-82
2022/10/07 00:23:17;;;;;;;;;;;;;;;;;;4995088;28;6988;-84
2022/10/07 00:25:43;;;;;;;;;;;;;;;;;;4994814;28;7147;-84
2022/10/07 00:28:08;;;;;;;;;;;;;;;;;;4994201;28;8455;-84
2022/10/07 00:30:34;;;;;;;;;;;;;;;;;;4994347;28;7022;-85
2022/10/07 00:33:00;;;;;;;;;;;;;;;;;;4994137;28;7236;-84
2022/10/07 00:35:25;;;;;;;;;;;;;;;;;;4994402;28;8376;-85
2022/10/07 00:37:51;;;;;;;;;;;;;;;;;;4994435;28;7036;-86
2022/10/07 00:40:16;;;;;;;;;;;;;;;;;;4994169;28;8576;-87
2022/10/07 00:42:42;;;;;;;;;;;;;;;;;;4998133;28;8378;-84
2022/10/07 00:45:15;;;;;;;;;;;;;;;;;;4998133;28;8397;-83
2022/10/07 00:47:44;;;;;;;;;;;;;;;;;;4998693;28;8653;-84
2022/10/07 00:50:14;;;;;;;;;;;;;;;;;;4998148;28;8641;-85
2022/10/07 00:52:59;;;;;;;;;;;;;;;;;;4998478;28;7360;-85
2022/10/07 00:55:28;;;;;;;;;;;;;;;;;;4996995;28;8448;-85
2022/10/07 00:57:58;;;;;;;;;;;;;;;;;;4997961;28;7419;-84
2022/10/07 01:00:23;;;;;;;;;;;;;;;;;;4998201;28;7050;-86
2022/10/07 01:02:50;;;;;;;;;;;;;;;;;;4997643;28;7005;-85
2022/10/07 01:05:16;;;;;;;;;;;;;;;;;;4997856;28;7036;-85
2022/10/07 01:07:44;;;;;;;;;;;;;;;;;;4997903;28;7268;-85
2022/10/07 01:10:11;;;;;;;;;;;;;;;;;;4998082;28;8334;-85
2022/10/07 01:12:59;;;;;;;;;;;;;;;;;;4994392;28;7061;-85
2022/10/07 01:15:38;;;;;;;;;;;;;;;;;;4978431;28;8695;-85
2022/10/07 01:18:21;;;;;;;;;;;;;;;;;;4978212;28;8616;-86
2022/10/07 01:20:53;;;;;;;;;;;;;;;;;;4978242;28;7196;-85
2022/10/07 01:23:35;;;;;;;;;;;;;;;;;;4978546;28;7243;-83
2022/10/07 01:26:08;;;;;;;;;;;;;;;;;;4978421;28;7127;-84
2022/10/07 01:28:39;;;;;;;;;;;;;;;;;;4977694;28;9474;-83
2022/10/07 01:31:08;;;;;;;;;;;;;;;;;;4977761;28;8650;-85
2022/10/07 01:33:35;;;;;;;;;;;;;;;;;;4978052;28;8425;-84
2022/10/07 01:36:11;;;;;;;;;;;;;;;;;;4978062;28;8409;-86
2022/10/07 01:38:41;;;;;;;;;;;;;;;;;;4977284;28;8381;-84
2022/10/07 01:41:10;;;;;;;;;;;;;;;;;;4977797;28;7428;-82
2022/10/07 01:43:38;;;;;;;;;;;;;;;;;;4977919;28;8411;-83
2022/10/07 01:46:06;;;;;;;;;;;;;;;;;;4977841;28;7432;-83
2022/10/07 01:48:32;;;;;;;;;;;;;;;;;;4977332;28;8480;-84
2022/10/07 01:51:00;;;;;;;;;;;;;;;;;;4977202;28;8439;-83
2022/10/07 01:53:46;;;;;;;;;;;;;;;;;;4976279;28;7041;-83
2022/10/07 01:56:12;;;;;;;;;;;;;;;;;;4978084;28;7036;-82
2022/10/07 01:59:05;;;;;;;;;;;;;;;;;;4977150;28;8500;-83
2022/10/07 02:01:41;;;;;;;;;;;;;;;;;;4977721;28;8968;-83
2022/10/07 02:04:24;;;;;;;;;;;;;;;;;;4976986;28;8705;-83
2022/10/07 02:06:49;;;;;;;;;;;;;;;;;;4977033;28;7056;-84
2022/10/07 02:09:32;;;;;;;;;;;;;;;;;;4977214;28;8407;-83
2022/10/07 02:12:11;;;;;;;;;;;;;;;;;;4977094;28;7271;-83
2022/10/07 02:14:43;;;;;;;;;;;;;;;;;;4977027;28;7218;-82
2022/10/07 02:17:15;;;;;;;;;;;;;;;;;;4977414;28;8199;-84
2022/10/07 02:19:45;;;;;;;;;;;;;;;;;;4976914;28;7053;-84
2022/10/07 02:22:14;;;;;;;;;;;;;;;;;;4977562;28;6825;-83
2022/10/07 02:24:41;;;;;;;;;;;;;;;;;;4977372;28;6815;-83
2022/10/07 02:27:11;;;;;;;;;;;;;;;;;;4976864;28;8376;-84
2022/10/07 02:29:41;;;;;;;;;;;;;;;;;;4976873;28;8460;-84
2022/10/07 02:32:10;;;;;;;;;;;;;;;;;;4976587;28;8469;-81
2022/10/07 02:34:40;;;;;;;;;;;;;;;;;;4976628;28;7164;-84
2022/10/07 02:37:11;;;;;;;;;;;;;;;;;;4976525;28;7256;-83
2022/10/07 02:39:36;;;;;;;;;;;;;;;;;;4976301;28;8440;-84
2022/10/07 02:42:28;;;;;;;;;;;;;;;;;;4976719;28;8682;-83
2022/10/07 02:45:12;;;;;;;;;;;;;;;;;;4976332;28;8448;-82
2022/10/07 02:47:55;;;;;;;;;;;;;;;;;;4976420;28;8469;-84
2022/10/07 02:50:26;;;;;;;;;;;;;;;;;;4976538;28;7158;-84
2022/10/07 02:52:54;;;;;;;;;;;;;;;;;;4976410;28;8523;-83
2022/10/07 02:55:24;;;;;;;;;;;;;;;;;;4976052;28;8656;-84
2022/10/07 02:57:55;;;;;;;;;;;;;;;;;;4976344;28;7060;-83
2022/10/07 03:00:21;;;;;;;;;;;;;;;;;;4975956;28;7155;-83
2022/10/07 03:02:52;;;;;;;;;;;;;;;;;;4976533;28;7361;-83
2022/10/07 03:05:19;;;;;;;;;;;;;;;;;;4975864;28;8571;-84
2022/10/07 03:07:46;;;;;;;;;;;;;;;;;;4976327;28;8609;-84
2022/10/07 03:10:13;;;;;;;;;;;;;;;;;;4975706;28;7209;-84
2022/10/07 03:12:38;;;;;;;;;;;;;;;;;;4976048;28;8468;-83
2022/10/07 03:15:04;;;;;;;;;;;;;;;;;;4975656;28;7240;-83
2022/10/07 03:17:30;;;;;;;;;;;;;;;;;;4975891;28;8402;-83
2022/10/07 03:19:56;;;;;;;;;;;;;;;;;;4975992;28;8241;-84
2022/10/07 03:22:22;;;;;;;;;;;;;;;;;;4975711;28;7339;-84
2022/10/07 03:24:47;;;;;;;;;;;;;;;;;;4975780;28;8630;-84
2022/10/07 03:27:13;;;;;;;;;;;;;;;;;;4975807;28;8627;-86
2022/10/07 03:29:38;;;;;;;;;;;;;;;;;;4975412;28;8565;-83
2022/10/07 03:32:04;;;;;;;;;;;;;;;;;;4976038;28;8430;-83
2022/10/07 03:34:30;;;;;;;;;;;;;;;;;;4975591;28;7222;-83
2022/10/07 03:36:56;;;;;;;;;;;;;;;;;;4975350;28;9144;-85
2022/10/07 03:39:22;;;;;;;;;;;;;;;;;;4975562;28;8774;-83
2022/10/07 03:41:48;;;;;;;;;;;;;;;;;;4975095;28;7592;-83
2022/10/07 03:44:15;;;;;;;;;;;;;;;;;;4975163;28;7161;-80
2022/10/07 03:46:40;;;;;;;;;;;;;;;;;;4975164;28;7179;-81
2022/10/07 03:49:06;;;;;;;;;;;;;;;;;;4975384;28;8589;-83
2022/10/07 03:51:31;;;;;;;;;;;;;;;;;;4975174;28;8413;-81
2022/10/07 03:53:58;;;;;;;;;;;;;;;;;;4974998;28;8414;-83
2022/10/07 03:56:24;;;;;;;;;;;;;;;;;;4975219;28;8332;-82
2022/10/07 03:58:51;;;;;;;;;;;;;;;;;;4975681;28;8808;-83
2022/10/07 04:01:17;;;;;;;;;;;;;;;;;;4974818;28;8298;-83
2022/10/07 04:03:45;;;;;;;;;;;;;;;;;;4975017;28;8441;-83
2022/10/07 04:06:10;;;;;;;;;;;;;;;;;;4974915;28;7401;-82
2022/10/07 04:08:36;;;;;;;;;;;;;;;;;;4975401;28;6907;-83
2022/10/07 04:11:03;;;;;;;;;;;;;;;;;;4974792;28;7155;-82
2022/10/07 04:13:29;;;;;;;;;;;;;;;;;;4975354;28;8442;-83
2022/10/07 04:15:55;;;;;;;;;;;;;;;;;;4974688;28;8635;-83
2022/10/07 04:18:21;;;;;;;;;;;;;;;;;;4974857;28;7061;-83
2022/10/07 04:20:46;;;;;;;;;;;;;;;;;;4974676;28;8745;-82
2022/10/07 04:23:11;;;;;;;;;;;;;;;;;;4975073;28;8442;-82
2022/10/07 04:25:42;;;;;;;;;;;;;;;;;;4975013;28;7022;-84
2022/10/07 04:28:14;;;;;;;;;;;;;;;;;;4974612;28;7371;-82
2022/10/07 04:30:42;;;;;;;;;;;;;;;;;;4975434;28;7184;-83
2022/10/07 04:33:08;;;;;;;;;;;;;;;;;;4974990;28;7113;-83
2022/10/07 04:35:38;;;;;;;;;;;;;;;;;;4974508;28;8427;-83
2022/10/07 04:38:06;;;;;;;;;;;;;;;;;;4975442;28;7176;-83
2022/10/07 04:40:32;;;;;;;;;;;;;;;;;;4974569;28;7263;-84
2022/10/07 04:45:41;;;;;;;;;;;;;;;;;;4975972;28;6804;-83
2022/10/07 04:48:07;;;;;;;;;;;;;;;;;;4974843;28;9274;-82
2022/10/07 04:50:35;;;;;;;;;;;;;;;;;;4974576;28;7233;-83
2022/10/07 04:53:01;;;;;;;;;;;;;;;;;;4974474;28;8359;-83
2022/10/07 04:55:27;;;;;;;;;;;;;;;;;;4974859;28;9379;-83
2022/10/07 04:57:53;;;;;;;;;;;;;;;;;;4974420;28;7043;-82
2022/10/07 05:00:18;;;;;;;;;;;;;;;;;;4974389;28;8443;-82
2022/10/07 05:02:49;;;;;;;;;;;;;;;;;;4974392;28;8464;-83
2022/10/07 05:05:15;;;;;;;;;;;;;;;;;;4974972;28;8422;-83
2022/10/07 05:07:41;;;;;;;;;;;;;;;;;;4974485;28;7410;-83
2022/10/07 05:10:07;;;;;;;;;;;;;;;;;;4974667;28;8385;-82
2022/10/07 05:12:32;;;;;;;;;;;;;;;;;;4974336;28;8371;-83
2022/10/07 05:14:58;;;;;;;;;;;;;;;;;;4974215;28;8377;-83
2022/10/07 05:17:24;;;;;;;;;;;;;;;;;;4974316;28;8394;-82
2022/10/07 05:19:50;;;;;;;;;;;;;;;;;;4974688;28;8827;-82
2022/10/07 05:22:15;;;;;;;;;;;;;;;;;;4974167;28;8445;-83
2022/10/07 05:24:41;;;;;;;;;;;;;;;;;;4974478;28;8348;-83
2022/10/07 05:27:06;;;;;;;;;;;;;;;;;;4974551;28;8396;-84
2022/10/07 05:29:32;;;;;;;;;;;;;;;;;;4977857;28;8386;-82
2022/10/07 05:31:58;;;;;;;;;;;;;;;;;;4977584;28;7035;-83
2022/10/07 05:34:24;;;;;;;;;;;;;;;;;;4977647;28;7154;-83
2022/10/07 05:36:49;;;;;;;;;;;;;;;;;;4977536;28;7137;-83
2022/10/07 05:39:15;;;;;;;;;;;;;;;;;;4977875;28;8285;-84
2022/10/07 05:41:41;;;;;;;;;;;;;;;;;;4977679;28;9538;-83
2022/10/07 05:44:06;;;;;;;;;;;;;;;;;;4977712;28;7148;-83
2022/10/07 05:46:32;;;;;;;;;;;;;;;;;;4977768;28;8779;-83
2022/10/07 05:48:57;;;;;;;;;;;;;;;;;;4977328;28;7135;-85
2022/10/07 05:51:24;;;;;;;;;;;;;;;;;;4974402;28;7115;-83
2022/10/07 05:53:53;;;;;;;;;;;;;;;;;;4973899;28;7169;-84
2022/10/07 05:56:21;;;;;;;;;;;;;;;;;;4981714;28;8397;-83
2022/10/07 05:58:47;;;;;;;;;;;;;;;;;;4963729;28;7381;-83
2022/10/07 06:01:15;;;;;;;;;;;;;;;;;;4958003;28;8576;-83
2022/10/07 06:03:41;;;;;;;;;;;;;;;;;;4971159;28;7161;-83
2022/10/07 06:06:07;;;;;;;;;;;;;;;;;;4977435;28;7035;-83
2022/10/07 06:08:34;;;;;;;;;;;;;;;;;;4977232;28;8395;-84
2022/10/07 06:13:49;;;;;;;;;;;;;;;;;;4965127;28;6827;-83
2022/10/07 06:16:15;;;;;;;;;;;;;;;;;;4972904;28;8341;-83
2022/10/07 06:18:40;;;;;;;;;;;;;;;;;;4986007;28;8811;-84
2022/10/07 06:21:06;;;;;;;;;;;;;;;;;;4965310;28;7274;-82
2022/10/07 06:23:32;;;;;;;;;;;;;;;;;;4974074;28;7143;-83
2022/10/07 06:26:00;;;;;;;;;;;;;;;;;;4967012;28;8407;-82
2022/10/07 06:28:31;;;;;;;;;;;;;;;;;;4965501;28;7251;-82
2022/10/07 06:30:56;;;;;;;;;;;;;;;;;;4973761;28;9145;-83
2022/10/07 06:33:22;;;;;;;;;;;;;;;;;;4975926;28;7251;-80
2022/10/07 06:35:47;;;;;;;;;;;;;;;;;;4968196;28;7086;-88
2022/10/07 06:38:13;;;;;;;;;;;;;;;;;;4962033;28;8635;-85
2022/10/07 06:40:38;;;;;;;;;;;;;;;;;;4957386;28;8619;-82
2022/10/07 06:43:04;;;;;;;;;;;;;;;;;;4964243;28;8405;-83
2022/10/07 06:45:31;;;;;;;;;;;;;;;;;;4962160;28;7178;-83
2022/10/07 06:47:57;;;;;;;;;;;;;;;;;;4958942;28;7042;-82
2022/10/07 06:50:23;;;;;;;;;;;;;;;;;;4957168;28;8500;-83
2022/10/07 06:52:49;;;;;;;;;;;;;;;;;;4957076;28;8682;-83
2022/10/07 06:55:16;;;;;;;;;;;;;;;;;;4956766;28;7345;-82
2022/10/07 06:57:42;;;;;;;;;;;;;;;;;;4957220;28;8301;-83
2022/10/07 07:00:08;;;;;;;;;;;;;;;;;;4964631;28;7015;-83
2022/10/07 07:02:34;;;;;;;;;;;;;;;;;;4966093;28;7173;-84
2022/10/07 07:05:03;;;;;;;;;;;;;;;;;;4973300;28;8386;-83
2022/10/07 07:07:29;;;;;;;;;;;;;;;;;;4988828;28;7166;-84
2022/10/07 07:09:55;;;;;;;;;;;;;;;;;;4972256;28;7174;-83
2022/10/07 07:12:24;;;;;;;;;;;;;;;;;;4972542;28;8727;-84
2022/10/07 07:14:50;;;;;;;;;;;;;;;;;;4959436;28;8738;-85
2022/10/07 07:17:16;;;;;;;;;;;;;;;;;;4956440;28;8390;-83
2022/10/07 07:19:42;;;;;;;;;;;;;;;;;;4956534;28;7047;-85
2022/10/07 07:22:08;;;;;;;;;;;;;;;;;;4956244;28;7206;-82
2022/10/07 07:24:33;;;;;;;;;;;;;;;;;;4956612;28;7215;-82
2022/10/07 07:26:59;;;;;;;;;;;;;;;;;;4956444;28;7315;-83
2022/10/07 07:29:25;;;;;;;;;;;;;;;;;;4956405;28;6824;-81
2022/10/07 07:31:51;;;;;;;;;;;;;;;;;;4956472;28;7159;-82
2022/10/07 07:34:16;;;;;;;;;;;;;;;;;;4956204;28;7148;-84
2022/10/07 07:36:44;;;;;;;;;;;;;;;;;;4956147;28;7348;-84
2022/10/07 07:39:12;;;;;;;;;;;;;;;;;;4956059;28;8324;-83
2022/10/07 07:41:40;;;;;;;;;;;;;;;;;;4955835;28;7287;-83
2022/10/07 07:44:08;;;;;;;;;;;;;;;;;;4955854;28;7044;-85
2022/10/07 07:46:36;;;;;;;;;;;;;;;;;;4955943;28;7163;-83
2022/10/07 07:49:02;;;;;;;;;;;;;;;;;;4956272;28;7638;-84
2022/10/07 07:51:27;;;;;;;;;;;;;;;;;;4955153;28;8593;-84
2022/10/07 07:53:53;;;;;;;;;;;;;;;;;;4956113;28;7229;-83
2022/10/07 07:56:19;;;;;;;;;;;;;;;;;;4955681;28;7418;-85
2022/10/07 07:58:45;;;;;;;;;;;;;;;;;;4956284;28;8402;-84
2022/10/07 08:01:12;;;;;;;;;;;;;;;;;;4955651;28;8726;-84
2022/10/07 08:03:40;;;;;;;;;;;;;;;;;;4955554;28;7175;-84
2022/10/07 08:06:07;;;;;;;;;;;;;;;;;;4956082;28;7063;-84
2022/10/07 08:08:33;;;;;;;;;;;;;;;;;;4956237;28;7686;-84
2022/10/07 08:11:05;;;;;;;;;;;;;;;;;;4955631;28;7202;-83
2022/10/07 08:13:31;;;;;;;;;;;;;;;;;;4956256;28;8441;-84
2022/10/07 08:15:58;;;;;;;;;;;;;;;;;;4955415;28;7115;-83
2022/10/07 08:18:24;;;;;;;;;;;;;;;;;;4956601;28;8608;-83
2022/10/07 08:20:57;;;;;;;;;;;;;;;;;;4955463;28;7139;-83
2022/10/07 08:23:22;;;;;;;;;;;;;;;;;;4955677;28;8763;-83
2022/10/07 08:25:52;;;;;;;;;;;;;;;;;;4955752;28;7030;-83
2022/10/07 08:28:17;;;;;;;;;;;;;;;;;;4955674;28;8510;-83
2022/10/07 08:30:45;;;;;;;;;;;;;;;;;;4955822;28;7167;-83
2022/10/07 08:33:10;;;;;;;;;;;;;;;;;;4955557;28;8445;-83
2022/10/07 08:35:36;;;;;;;;;;;;;;;;;;4955771;28;8632;-83
2022/10/07 08:38:02;;;;;;;;;;;;;;;;;;4955795;28;7050;-84
2022/10/07 08:40:28;;;;;;;;;;;;;;;;;;4955455;28;8782;-83
2022/10/07 08:42:54;;;;;;;;;;;;;;;;;;4955538;28;8458;-84
2022/10/07 08:45:30;;;;;;;;;;;;;;;;;;4955231;28;7306;-83
2022/10/07 08:47:59;;;;;;;;;;;;;;;;;;4955339;29;7222;-84
2022/10/07 08:50:33;;;;;;;;;;;;;;;;;;4955145;28;7413;-84
2022/10/07 08:53:03;;;;;;;;;;;;;;;;;;4955608;28;8577;-84
2022/10/07 08:55:31;;;;;;;;;;;;;;;;;;4955202;28;7058;-82
2022/10/07 08:58:03;;;;;;;;;;;;;;;;;;4955481;28;7099;-86
2022/10/07 09:00:37;;;;;;;;;;;;;;;;;;4955137;28;8369;-86
2022/10/07 09:03:15;;;;;;;;;;;;;;;;;;4957933;28;9259;-84
2022/10/07 09:05:46;;;;;;;;;;;;;;;;;;4958600;28;8557;-83
2022/10/07 09:08:34;;;;;;;;;;;;;;;;;;4959084;28;8395;-82
2022/10/07 09:11:17;;;;;;;;;;;;;;;;;;4958695;28;8351;-82
2022/10/07 09:13:57;;;;;;;;;;;;;;;;;;4958069;28;7171;-83
2022/10/07 09:16:28;;;;;;;;;;;;;;;;;;4958739;28;8477;-82
2022/10/07 09:18:57;;;;;;;;;;;;;;;;;;4958938;28;8595;-83
2022/10/07 09:21:43;;;;;;;;;;;;;;;;;;4965761;28;8700;-81
2022/10/07 09:24:18;;;;;;;;;;;;;;;;;;4976306;28;7092;-85
2022/10/07 09:26:44;;;;;;;;;;;;;;;;;;4990165;28;8482;-83
2022/10/07 09:29:10;;;;;;;;;;;;;;;;;;4965194;28;8643;-82
2022/10/07 09:31:36;;;;;;;;;;;;;;;;;;4962871;28;8293;-81
2022/10/07 09:34:02;;;;;;;;;;;;;;;;;;4990976;28;7207;-83
2022/10/07 09:36:28;;;;;;;;;;;;;;;;;;4977677;28;8510;-84
2022/10/07 09:38:53;;;;;;;;;;;;;;;;;;4977967;28;8932;-81
2022/10/07 09:41:22;;;;;;;;;;;;;;;;;;4977875;28;8437;-83
2022/10/07 09:43:48;;;;;;;;;;;;;;;;;;4977102;28;8422;-83
2022/10/07 09:46:28;;;;;;;;;;;;;;;;;;4977441;28;8668;-84
2022/10/07 09:49:03;;;;;;;;;;;;;;;;;;4977528;28;8497;-85
2022/10/07 09:51:30;;;;;;;;;;;;;;;;;;4977165;28;8447;-81
2022/10/07 09:54:01;;;;;;;;;;;;;;;;;;4977414;28;7349;-81
2022/10/07 09:56:35;;;;;;;;;;;;;;;;;;4977655;28;7366;-86
2022/10/07 09:59:16;;;;;;;;;;;;;;;;;;4977225;28;8600;-87
2022/10/07 10:01:47;;;;;;;;;;;;;;;;;;4977677;28;7467;-86
2022/10/07 10:04:15;;;;;;;;;;;;;;;;;;4977319;28;8426;-86
2022/10/07 10:06:53;;;;;;;;;;;;;;;;;;4978138;28;7081;-87
2022/10/07 10:09:21;;;;;;;;;;;;;;;;;;4977297;28;8475;-86
2022/10/07 10:12:01;;;;;;;;;;;;;;;;;;4976724;28;7061;-86
2022/10/07 10:14:35;;;;;;;;;;;;;;;;;;4976193;28;7180;-86
2022/10/07 10:17:03;;;;;;;;;;;;;;;;;;4976949;28;6838;-87
2022/10/07 10:19:29;;;;;;;;;;;;;;;;;;4976878;28;7269;-86
2022/10/07 10:21:55;;;;;;;;;;;;;;;;;;4977502;28;7269;-87
2022/10/07 10:27:25;;;;;;;;;;;;;;;;;;4978273;28;7193;-86
2022/10/07 10:30:05;;;;;;;;;;;;;;;;;;4976506;28;8505;-85
2022/10/07 10:32:34;;;;;;;;;;;;;;;;;;4976584;28;8952;-85
2022/10/07 10:35:13;;;;;;;;;;;;;;;;;;4976388;28;7437;-86
2022/10/07 10:37:58;;;;;;;;;;;;;;;;;;4977096;28;8963;-85
2022/10/07 10:40:30;;;;;;;;;;;;;;;;;;4976532;28;7046;-85
2022/10/07 10:42:55;;;;;;;;;;;;;;;;;;4976773;28;7128;-85
2022/10/07 10:45:39;;;;;;;;;;;;;;;;;;4976631;28;8404;-85
2022/10/07 10:48:24;;;;;;;;;;;;;;;;;;4977189;28;8744;-85
2022/10/07 10:50:53;;;;;;;;;;;;;;;;;;4976429;28;7506;-85
2022/10/07 10:53:36;;;;;;;;;;;;;;;;;;4976774;28;8521;-84
2022/10/07 10:56:08;;;;;;;;;;;;;;;;;;4976267;28;7077;-84
2022/10/07 10:58:42;;;;;;;;;;;;;;;;;;4976752;28;8491;-86
2022/10/07 11:01:35;;;;;;;;;;;;;;;;;;4975769;28;7184;-86
2022/10/07 11:04:03;;;;;;;;;;;;;;;;;;4975989;28;8419;-86
2022/10/07 11:06:34;;;;;;;;;;;;;;;;;;4976175;28;8439;-83
2022/10/07 11:09:01;;;;;;;;;;;;;;;;;;4976058;28;8751;-86
2022/10/07 11:11:28;;;;;;;;;;;;;;;;;;4974649;28;7053;-85
2022/10/07 11:13:58;;;;;;;;;;;;;;;;;;4975446;28;8705;-86
2022/10/07 11:16:29;;;;;;;;;;;;;;;;;;4975433;28;8354;-85
2022/10/07 11:18:55;;;;;;;;;;;;;;;;;;4975938;28;7067;-87
2022/10/07 11:21:26;;;;;;;;;;;;;;;;;;4975662;28;7044;-82
2022/10/07 11:24:09;;;;;;;;;;;;;;;;;;4975213;28;8506;-81
2022/10/07 11:26:40;;;;;;;;;;;;;;;;;;4974081;28;8430;-84
2022/10/07 11:29:14;;;;;;;;;;;;;;;;;;4975267;28;7119;-84
2022/10/07 11:31:46;;;;;;;;;;;;;;;;;;4975796;28;8410;-85
2022/10/07 11:34:38;;;;;;;;;;;;;;;;;;4975504;28;8900;-85
2022/10/07 11:37:12;;;;;;;;;;;;;;;;;;4975170;28;7067;-86
2022/10/07 11:39:38;;;;;;;;;;;;;;;;;;4977721;28;7343;-82
2022/10/07 11:42:14;;;;;;;;;;;;;;;;;;4974500;28;7217;-85
2022/10/07 11:44:56;;;;;;;;;;;;;;;;;;4976330;28;7454;-85
2022/10/07 11:47:28;;;;;;;;;;;;;;;;;;4975288;28;8446;-85
2022/10/07 11:50:01;;;;;;;;;;;;;;;;;;4975219;28;8804;-85
2022/10/07 11:52:30;;;;;;;;;;;;;;;;;;4975707;28;7183;-84
2022/10/07 11:55:07;;;;;;;;;;;;;;;;;;4975533;28;8657;-84
2022/10/07 11:57:35;;;;;;;;;;;;;;;;;;4975591;28;7056;-86
2022/10/07 12:00:06;;;;;;;;;;;;;;;;;;4975580;28;8445;-85
2022/10/07 12:02:36;;;;;;;;;;;;;;;;;;4975070;28;9361;-84
2022/10/07 12:05:02;;;;;;;;;;;;;;;;;;4975429;28;8682;-85
2022/10/07 12:07:34;;;;;;;;;;;;;;;;;;4974970;28;8402;-84
2022/10/07 12:10:02;;;;;;;;;;;;;;;;;;4975430;28;7029;-84
2022/10/07 12:12:45;;;;;;;;;;;;;;;;;;4974779;28;8300;-84
2022/10/07 12:15:31;;;;;;;;;;;;;;;;;;4975019;28;7066;-85
2022/10/07 12:18:03;;;;;;;;;;;;;;;;;;4975510;28;8381;-83
2022/10/07 12:20:47;;;;;;;;;;;;;;;;;;4975659;28;8449;-84
2022/10/07 12:23:15;;;;;;;;;;;;;;;;;;4975476;28;7268;-86
2022/10/07 12:25:43;;;;;;;;;;;;;;;;;;4975061;28;8615;-85
2022/10/07 12:28:35;;;;;;;;;;;;;;;;;;4974629;28;7092;-84
2022/10/07 12:31:02;;;;;;;;;;;;;;;;;;4973492;28;7230;-84
2022/10/07 12:33:39;;;;;;;;;;;;;;;;;;4975127;28;8724;-85
2022/10/07 12:36:22;;;;;;;;;;;;;;;;;;4974729;28;8521;-84
2022/10/07 12:38:54;;;;;;;;;;;;;;;;;;4978634;28;7076;-85
2022/10/07 12:41:21;;;;;;;;;;;;;;;;;;4979158;28;7056;-84
2022/10/07 12:44:06;;;;;;;;;;;;;;;;;;4979141;28;8436;-85
2022/10/07 12:46:52;;;;;;;;;;;;;;;;;;4978474;28;8494;-84
2022/10/07 12:49:20;;;;;;;;;;;;;;;;;;4978344;28;7053;-84
2022/10/07 12:51:46;;;;;;;;;;;;;;;;;;4978918;28;8817;-84
2022/10/07 12:54:19;;;;;;;;;;;;;;;;;;4978419;28;8773;-83
2022/10/07 12:56:45;;;;;;;;;;;;;;;;;;4979385;28;7179;-84
2022/10/07 12:59:46;;;;;;;;;;;;;;;;;;4978140;28;8415;-83
2022/10/07 13:02:41;;;;;;;;;;;;;;;;;;4967613;28;8724;-85
2022/10/07 13:05:15;;;;;;;;;;;;;;;;;;4961609;28;8708;-84
2022/10/07 13:07:42;;;;;;;;;;;;;;;;;;4979943;28;8414;-86
2022/10/07 13:10:20;;;;;;;;;;;;;;;;;;4978293;28;7213;-85
2022/10/07 13:12:53;;;;;;;;;;;;;;;;;;4978450;28;8518;-85
2022/10/07 13:15:19;;;;;;;;;;;;;;;;;;4978187;28;7146;-85
2022/10/07 13:18:02;;;;;;;;;;;;;;;;;;4978766;28;7159;-84
2022/10/07 13:20:28;;;;;;;;;;;;;;;;;;4978229;28;7063;-85
2022/10/07 13:22:55;;;;;;;;;;;;;;;;;;4978134;28;8509;-85
2022/10/07 13:25:21;;;;;;;;;;;;;;;;;;4977862;28;8573;-84
2022/10/07 13:27:54;;;;;;;;;;;;;;;;;;4977573;28;8496;-87
2022/10/07 13:30:32;;;;;;;;;;;;;;;;;;4977088;28;7517;-86
2022/10/07 13:33:19;;;;;;;;;;;;;;;;;;4977866;28;8780;-85
2022/10/07 13:35:46;;;;;;;;;;;;;;;;;;4977620;28;7072;-85
2022/10/07 13:38:26;;;;;;;;;;;;;;;;;;4977715;28;8473;-86
2022/10/07 13:40:53;;;;;;;;;;;;;;;;;;4976762;28;7190;-84
2022/10/07 13:43:23;;;;;;;;;;;;;;;;;;4976761;28;7056;-85
2022/10/07 13:45:49;;;;;;;;;;;;;;;;;;4976450;28;7208;-84
2022/10/07 13:48:16;;;;;;;;;;;;;;;;;;4975766;28;9386;-85
2022/10/07 13:50:43;;;;;;;;;;;;;;;;;;4977042;28;9472;-85
2022/10/07 13:53:21;;;;;;;;;;;;;;;;;;4977259;28;7268;-83
2022/10/07 13:55:47;;;;;;;;;;;;;;;;;;4977612;28;7523;-84
2022/10/07 13:58:14;;;;;;;;;;;;;;;;;;4977120;28;7035;-83
2022/10/07 14:00:44;;;;;;;;;;;;;;;;;;4977147;28;8406;-83
2022/10/07 14:03:16;;;;;;;;;;;;;;;;;;4977192;28;8438;-84
2022/10/07 14:05:52;;;;;;;;;;;;;;;;;;4977079;28;8725;-83
2022/10/07 14:08:20;;;;;;;;;;;;;;;;;;4977133;28;9361;-83
2022/10/07 14:10:55;;;;;;;;;;;;;;;;;;4977245;28;7535;-83
2022/10/07 14:13:21;;;;;;;;;;;;;;;;;;4976854;28;7023;-83
2022/10/07 14:15:53;;;;;;;;;;;;;;;;;;4977321;28;6824;-82
2022/10/07 14:18:19;;;;;;;;;;;;;;;;;;4977410;28;8455;-83
2022/10/07 14:20:50;;;;;;;;;;;;;;;;;;4976669;28;7005;-83
2022/10/07 14:23:27;;;;;;;;;;;;;;;;;;4977104;28;7338;-82
2022/10/07 14:25:55;;;;;;;;;;;;;;;;;;4977307;28;7255;-83
2022/10/07 14:28:23;;;;;;;;;;;;;;;;;;4976729;28;7179;-82
2022/10/07 14:37:09;;;;;;;;;;;;;;;;;;4977482;28;6951;-83
2022/10/07 14:39:41;;;;;;;;;;;;;;;;;;4976594;28;8456;-82
2022/10/07 14:42:13;;;;;;;;;;;;;;;;;;4976660;28;7085;-84
2022/10/07 14:44:42;;;;;;;;;;;;;;;;;;4976119;28;7110;-83
2022/10/07 14:47:13;;;;;;;;;;;;;;;;;;4976234;28;9068;-83
2022/10/07 14:49:42;;;;;;;;;;;;;;;;;;4976262;28;8760;-83
2022/10/07 14:52:17;;;;;;;;;;;;;;;;;;4976153;28;7241;-83
2022/10/07 14:54:43;;;;;;;;;;;;;;;;;;4976973;28;7356;-83
2022/10/07 14:57:08;;;;;;;;;;;;;;;;;;4976941;28;7236;-83
2022/10/07 14:59:34;;;;;;;;;;;;;;;;;;4976367;28;9481;-83
2022/10/07 15:02:00;;;;;;;;;;;;;;;;;;4977310;28;7129;-83
2022/10/07 15:04:26;;;;;;;;;;;;;;;;;;4976098;28;8403;-83
2022/10/07 15:06:51;;;;;;;;;;;;;;;;;;4975889;28;7087;-83
2022/10/07 15:09:17;;;;;;;;;;;;;;;;;;4975889;28;7160;-83
2022/10/07 15:11:43;;;;;;;;;;;;;;;;;;4976195;28;8381;-82
2022/10/07 15:14:10;;;;;;;;;;;;;;;;;;4975773;28;8848;-83
2022/10/07 15:16:35;;;;;;;;;;;;;;;;;;4975640;28;7184;-83
2022/10/07 15:19:02;;;;;;;;;;;;;;;;;;4975780;28;8413;-83
2022/10/07 15:21:28;;;;;;;;;;;;;;;;;;4976693;28;7441;-83
2022/10/07 15:23:55;;;;;;;;;;;;;;;;;;4975848;28;9197;-82
2022/10/07 15:26:23;;;;;;;;;;;;;;;;;;4976346;28;7056;-82
2022/10/07 15:28:51;;;;;;;;;;;;;;;;;;4975945;28;8660;-82
2022/10/07 15:31:17;;;;;;;;;;;;;;;;;;4975776;28;8802;-83
2022/10/07 15:33:43;;;;;;;;;;;;;;;;;;4975749;28;8571;-82
2022/10/07 15:36:11;;;;;;;;;;;;;;;;;;4975292;28;7067;-84
2022/10/07 15:38:39;;;;;;;;;;;;;;;;;;4975368;28;7104;-83
2022/10/07 15:41:05;;;;;;;;;;;;;;;;;;4976013;28;7198;-82
2022/10/07 15:43:32;;;;;;;;;;;;;;;;;;4975308;28;8586;-83
2022/10/07 15:46:00;;;;;;;;;;;;;;;;;;4975325;28;8510;-82
2022/10/07 15:48:28;;;;;;;;;;;;;;;;;;4975530;28;7441;-82
2022/10/07 15:50:55;;;;;;;;;;;;;;;;;;4975206;28;8498;-81
2022/10/07 15:53:22;;;;;;;;;;;;;;;;;;4976145;28;7442;-75
2022/10/07 15:55:48;;;;;;;;;;;;;;;;;;4975042;28;7482;-82
2022/10/07 15:58:14;;;;;;;;;;;;;;;;;;4975320;28;7185;-81
2022/10/07 16:00:40;;;;;;;;;;;;;;;;;;4974981;28;8455;-81
2022/10/07 16:03:05;;;;;;;;;;;;;;;;;;4975815;28;9313;-81
2022/10/07 16:05:31;;;;;;;;;;;;;;;;;;4974948;28;7358;-81
2022/10/07 16:07:57;;;;;;;;;;;;;;;;;;4974942;28;8513;-81
2022/10/07 16:10:22;;;;;;;;;;;;;;;;;;4975466;28;8415;-81
2022/10/07 16:12:48;;;;;;;;;;;;;;;;;;4977528;28;8735;-82
2022/10/07 16:15:15;;;;;;;;;;;;;;;;;;4978345;28;8393;-82
2022/10/07 16:17:41;;;;;;;;;;;;;;;;;;4978115;28;7148;-82
2022/10/07 16:20:07;;;;;;;;;;;;;;;;;;4978265;28;8477;-81
2022/10/07 16:22:33;;;;;;;;;;;;;;;;;;4978558;28;8702;-82
2022/10/07 16:24:58;;;;;;;;;;;;;;;;;;4978239;28;8347;-81
2022/10/07 16:30:39;;;;;;;;;;;;;;;;;;4979188;28;7335;-82
2022/10/07 16:32:54;;;;;;;;;;;;;;;;;;4995587;28;6939;-81
2022/10/07 16:35:19;;;;;;;;;;;;;;;;;;4977757;28;6821;-82
2022/10/07 16:37:45;;;;;;;;;;;;;;;;;;4977796;28;8430;-81
2022/10/07 16:40:11;;;;;;;;;;;;;;;;;;4978542;28;8640;-82
2022/10/07 16:42:36;;;;;;;;;;;;;;;;;;4977977;28;8408;-82
2022/10/07 16:45:03;;;;;;;;;;;;;;;;;;4977856;28;8436;-82
2022/10/07 16:47:29;;;;;;;;;;;;;;;;;;4978475;28;8530;-84
2022/10/07 16:49:54;;;;;;;;;;;;;;;;;;4978422;28;7433;-82
2022/10/07 16:52:20;;;;;;;;;;;;;;;;;;4977668;28;8461;-82
2022/10/07 16:54:47;;;;;;;;;;;;;;;;;;4977597;28;8380;-83
2022/10/07 16:57:13;;;;;;;;;;;;;;;;;;4977759;28;8947;-83
2022/10/07 16:59:39;;;;;;;;;;;;;;;;;;4978131;28;7334;-83
2022/10/07 17:02:05;;;;;;;;;;;;;;;;;;4978180;28;8549;-83
2022/10/07 17:04:31;;;;;;;;;;;;;;;;;;4977156;28;7531;-83
2022/10/07 17:06:57;;;;;;;;;;;;;;;;;;4977644;28;7082;-83
2022/10/07 17:09:24;;;;;;;;;;;;;;;;;;4978353;28;7216;-82
2022/10/07 17:11:50;;;;;;;;;;;;;;;;;;4977307;28;7271;-82
2022/10/07 17:14:17;;;;;;;;;;;;;;;;;;4977748;28;8570;-83
2022/10/07 17:16:44;;;;;;;;;;;;;;;;;;4977065;28;8442;-83
2022/10/07 17:19:12;;;;;;;;;;;;;;;;;;4975783;28;8433;-82
2022/10/07 17:21:39;;;;;;;;;;;;;;;;;;4976324;28;7397;-83
2022/10/07 17:24:05;;;;;;;;;;;;;;;;;;4979581;28;7176;-82
2022/10/07 17:26:30;;;;;;;;;;;;;;;;;;4980302;28;8611;-82
2022/10/07 17:28:57;;;;;;;;;;;;;;;;;;4979979;28;8481;-82
2022/10/07 17:31:24;;;;;;;;;;;;;;;;;;4980559;28;7190;-82
2022/10/07 17:33:50;;;;;;;;;;;;;;;;;;4981090;28;7262;-82
2022/10/07 17:36:16;;;;;;;;;;;;;;;;;;4981034;28;7417;-82